createdAt,value
2022-11-24T14:19:31.028Z,70.44
2022-11-24T14:25:04.473Z,75.71
2022-11-24T14:27:42.369Z,69.90
2022-11-24T14:30:16.000Z,71.76
2022-11-24T14:32:56.558Z,77.24
2022-11-24T14:35:25.499Z,75.51
2022-11-24T14:37:53.051Z,77.47
2022-11-24T14:40:55.120Z,80.53
2022-11-24T14:43:31.565Z,73.14
2022-11-24T14:46:05.614Z,80.26
2022-11-24T14:48:37.745Z,73.29
2022-11-24T14:51:27.864Z,76.05
2022-11-24T14:54:03.110Z,78.83
2022-11-24T14:56:37.486Z,78.49
2022-11-24T14:59:24.478Z,72.72
2022-11-24T15:01:52.041Z,72.39
2022-11-24T15:07:27.410Z,75.66
2022-11-24T15:10:00.477Z,76.28
2022-11-24T15:12:31.830Z,79.68
2022-11-24T15:15:22.157Z,76.57
2022-11-24T15:18:00.171Z,78.47
2022-11-24T15:20:46.469Z,78.94
2022-11-24T15:23:16.500Z,81.99
2022-11-24T15:25:44.838Z,80.99
2022-11-24T15:28:12.596Z,82.39
2022-11-24T15:30:39.770Z,78.90
2022-11-24T15:33:18.215Z,82.56
2022-11-24T15:35:46.510Z,78.52
2022-11-24T15:38:14.429Z,78.76
2022-11-24T15:40:45.546Z,78.18
2022-11-24T15:43:33.894Z,78.43
2022-11-24T15:46:02.349Z,80.48
2022-11-24T15:48:30.391Z,79.27
2022-11-24T15:50:59.639Z,82.39
2022-11-24T15:53:34.418Z,80.67
2022-11-24T15:56:09.591Z,82.30
2022-11-24T15:58:38.052Z,80.80
2022-11-24T16:01:06.902Z,81.53
2022-11-24T16:03:46.901Z,81.80
2022-11-24T16:06:24.536Z,83.12
2022-11-24T16:08:54.670Z,81.56
2022-11-24T16:11:24.926Z,82.69
2022-11-24T16:13:54.806Z,84.67
2022-11-24T16:18:58.320Z,83.65
2022-11-24T16:21:30.775Z,84.20
2022-11-24T16:23:59.501Z,84.33
2022-11-24T16:26:29.299Z,83.76
2022-11-24T16:28:58.794Z,84.33
2022-11-24T16:31:29.290Z,83.95
2022-11-24T16:33:58.369Z,83.74
2022-11-24T16:36:28.218Z,83.57
2022-11-24T16:38:59.017Z,83.43
2022-11-24T16:41:29.426Z,82.90
2022-11-24T16:43:57.470Z,83.55
2022-11-24T16:46:28.655Z,83.38
2022-11-24T16:49:02.170Z,83.86
2022-11-24T16:51:34.768Z,83.99
2022-11-24T16:54:04.374Z,84.23
2022-11-24T16:56:31.716Z,84.10
2022-11-24T16:59:00.562Z,84.08
2022-11-24T17:01:33.843Z,83.57
2022-11-24T17:04:01.360Z,84.44
2022-11-24T17:06:29.079Z,84.42
2022-11-24T17:09:00.687Z,84.62
2022-11-24T17:11:29.293Z,84.61
2022-11-24T17:13:58.666Z,84.50
2022-11-24T17:16:27.156Z,84.36
2022-11-24T17:18:54.903Z,84.24
2022-11-24T17:21:24.639Z,84.36
2022-11-24T17:24:06.021Z,84.40
2022-11-24T17:26:34.282Z,84.69
2022-11-24T17:29:01.728Z,84.93
2022-11-24T17:31:33.853Z,83.89
2022-11-24T17:34:05.212Z,84.04
2022-11-24T17:36:42.027Z,84.19
2022-11-24T17:39:10.011Z,84.67
2022-11-24T17:41:42.689Z,84.54
2022-11-24T17:44:13.162Z,84.73
2022-11-24T17:46:44.084Z,84.74
2022-11-24T17:49:13.470Z,85.79
2022-11-24T17:51:59.120Z,86.98
2022-11-24T17:57:13.978Z,86.28
2022-11-24T17:59:41.608Z,86.08
2022-11-24T18:02:10.721Z,84.47
2022-11-24T18:04:38.681Z,85.00
2022-11-24T18:07:08.740Z,86.24
2022-11-24T18:09:37.533Z,85.28
2022-11-24T18:12:07.855Z,85.45
2022-11-24T18:14:35.809Z,86.58
2022-11-24T18:17:06.637Z,85.73
2022-11-24T18:19:35.911Z,85.30
2022-11-24T18:22:03.587Z,85.43
2022-11-24T18:24:33.865Z,86.00
2022-11-24T18:27:02.937Z,84.17
2022-11-24T18:29:30.049Z,85.23
2022-11-24T18:31:57.535Z,84.97
2022-11-24T18:34:25.329Z,85.50
2022-11-24T18:36:53.242Z,86.56
2022-11-24T18:39:20.579Z,86.04
2022-11-24T18:41:50.653Z,87.17
2022-11-24T18:44:18.436Z,84.95
2022-11-24T18:46:50.143Z,84.10
2022-11-24T18:49:23.351Z,84.65
2022-11-24T18:51:50.913Z,84.06
2022-11-24T18:54:20.541Z,85.96
2022-11-24T18:56:50.279Z,84.04
2022-11-24T18:59:18.106Z,83.71
2022-11-24T19:01:46.739Z,88.15
2022-11-24T19:04:17.566Z,85.79
2022-11-24T19:06:45.322Z,85.54
2022-11-24T19:09:15.539Z,87.57
2022-11-24T19:11:47.502Z,88.90
2022-11-24T19:14:17.090Z,88.19
2022-11-24T19:16:49.442Z,88.34
2022-11-24T19:19:17.704Z,86.13
2022-11-24T19:21:45.536Z,86.03
2022-11-24T19:24:17.392Z,85.73
2022-11-24T19:26:44.464Z,86.99
2022-11-24T19:29:12.023Z,89.51
2022-11-24T19:31:42.435Z,88.61
2022-11-24T19:34:15.394Z,88.55
2022-11-24T19:36:50.842Z,87.44
2022-11-24T19:39:37.153Z,87.98
2022-11-24T19:42:11.848Z,88.09
2022-11-24T19:44:42.649Z,87.91
2022-11-24T19:47:17.625Z,87.31
2022-11-24T19:49:59.553Z,88.07
2022-11-24T19:53:00.570Z,89.53
2022-11-24T19:55:33.174Z,89.40
2022-11-24T19:58:10.771Z,89.80
2022-11-24T20:00:45.477Z,89.54
2022-11-24T20:03:22.179Z,90.03
2022-11-24T20:06:03.739Z,91.55
2022-11-24T20:08:40.236Z,91.39
2022-11-24T20:11:17.866Z,92.42
2022-11-24T20:13:52.116Z,91.23
2022-11-24T20:16:27.124Z,91.54
2022-11-24T20:19:02.929Z,87.64
2022-11-24T20:21:41.120Z,86.30
2022-11-24T20:24:18.139Z,87.05
2022-11-24T20:26:58.573Z,85.64
2022-11-24T20:29:51.444Z,84.66
2022-11-24T20:32:29.783Z,84.74
2022-11-24T20:35:02.251Z,85.50
2022-11-24T20:37:37.920Z,87.63
2022-11-24T20:40:42.987Z,85.16
2022-11-24T20:43:12.909Z,88.47
2022-11-24T20:48:52.641Z,86.37
2022-11-24T20:51:34.837Z,85.80
2022-11-24T20:54:16.222Z,84.92
2022-11-24T20:57:16.054Z,84.66
2022-11-24T20:59:52.312Z,83.95
2022-11-24T21:02:41.706Z,87.54
2022-11-24T21:05:38.519Z,87.86
2022-11-24T21:08:20.097Z,86.03
2022-11-24T21:11:31.318Z,86.06
2022-11-24T21:14:16.411Z,85.43
2022-11-24T21:16:56.126Z,85.45
2022-11-24T21:23:57.363Z,83.45
2022-11-24T21:26:49.380Z,84.85
2022-11-24T21:29:27.635Z,87.86
2022-11-24T21:32:31.972Z,89.40
2022-11-24T21:35:15.588Z,91.46
2022-11-24T21:38:09.428Z,87.98
2022-11-24T21:40:58.201Z,84.87
2022-11-24T21:44:16.573Z,86.27
2022-11-24T21:47:29.604Z,84.83
2022-11-24T21:50:23.481Z,86.56
2022-11-24T21:53:03.687Z,89.40
2022-11-24T21:56:15.445Z,91.47
2022-11-24T21:58:55.562Z,88.39
2022-11-24T22:02:02.647Z,87.15
2022-11-24T22:05:00.858Z,85.00
2022-11-24T22:07:52.889Z,87.04
2022-11-24T22:10:36.346Z,86.47
2022-11-24T22:13:44.763Z,83.71
2022-11-24T22:16:30.499Z,83.45
2022-11-24T22:19:12.392Z,85.11
2022-11-24T22:21:48.371Z,89.98
2022-11-24T22:24:16.290Z,89.22
2022-11-24T22:27:04.511Z,87.21
2022-11-24T22:29:34.293Z,86.89
2022-11-24T22:32:01.783Z,89.46
2022-11-24T22:34:40.612Z,85.17
2022-11-24T22:37:37.167Z,88.27
2022-11-24T22:40:17.850Z,87.26
2022-11-24T22:43:28.611Z,87.01
2022-11-24T22:46:06.772Z,87.52
2022-11-24T22:48:42.143Z,85.58
2022-11-24T22:51:34.472Z,90.08
2022-11-24T22:54:12.574Z,89.10
2022-11-24T22:56:42.821Z,92.05
2022-11-24T22:59:22.953Z,86.04
2022-11-24T23:01:59.238Z,88.87
2022-11-24T23:04:26.484Z,89.61
2022-11-24T23:06:53.693Z,87.88
2022-11-24T23:09:21.147Z,91.48
2022-11-24T23:11:48.845Z,89.34
2022-11-24T23:14:17.972Z,88.05
2022-11-24T23:16:45.411Z,87.37
2022-11-24T23:19:15.194Z,88.64
2022-11-24T23:21:45.085Z,90.90
2022-11-24T23:24:12.240Z,92.03
2022-11-24T23:26:41.290Z,91.25
2022-11-24T23:29:10.184Z,88.60
2022-11-24T23:31:40.394Z,86.44
2022-11-24T23:34:07.619Z,88.63
2022-11-24T23:36:34.708Z,92.51
2022-11-24T23:39:09.508Z,91.10
2022-11-24T23:41:36.832Z,89.06
2022-11-24T23:44:06.615Z,90.58
2022-11-24T23:46:34.103Z,93.15
2022-11-24T23:49:01.272Z,92.14
2022-11-24T23:51:30.907Z,91.68
2022-11-24T23:53:59.469Z,90.27
2022-11-24T23:56:33.269Z,86.21
2022-11-24T23:59:02.310Z,88.00
